sensor_id;sensor_type;location;lat;lon;timestamp;pressure;altitude;pressure_sealevel;temperature;humidity
67980;BME280;54760;47.490;19.030;2023-05-11T00:00:38;100187.06;;;15.11;49.34
67980;BME280;54760;47.490;19.030;2023-05-11T00:03:03;100190.44;;;14.94;49.03
67980;BME280;54760;47.490;19.030;2023-05-11T00:05:30;100192.28;;;14.97;49.18
67980;BME280;54760;47.490;19.030;2023-05-11T00:07:55;100200.31;;;14.69;50.38
67980;BME280;54760;47.490;19.030;2023-05-11T00:10:21;100192.94;;;15.01;49.91
67980;BME280;54760;47.490;19.030;2023-05-11T00:12:46;100180.69;;;15.02;49.79
67980;BME280;54760;47.490;19.030;2023-05-11T00:15:12;100182.16;;;14.94;49.49
67980;BME280;54760;47.490;19.030;2023-05-11T00:17:37;100184.91;;;14.94;49.38
67980;BME280;54760;47.490;19.030;2023-05-11T00:20:03;100187.31;;;15.04;49.54
67980;BME280;54760;47.490;19.030;2023-05-11T00:22:28;100188.16;;;15.14;49.08
67980;BME280;54760;47.490;19.030;2023-05-11T00:24:54;100185.50;;;14.89;50.13
67980;BME280;54760;47.490;19.030;2023-05-11T00:27:19;100186.53;;;15.04;50.38
67980;BME280;54760;47.490;19.030;2023-05-11T00:29:44;100188.22;;;15.23;49.47
67980;BME280;54760;47.490;19.030;2023-05-11T00:32:10;100184.50;;;15.17;49.35
67980;BME280;54760;47.490;19.030;2023-05-11T00:34:35;100188.97;;;15.02;49.70
67980;BME280;54760;47.490;19.030;2023-05-11T00:37:01;100185.78;;;15.03;49.67
67980;BME280;54760;47.490;19.030;2023-05-11T00:39:27;100175.81;;;15.06;49.29
67980;BME280;54760;47.490;19.030;2023-05-11T00:41:52;100176.50;;;14.76;49.97
67980;BME280;54760;47.490;19.030;2023-05-11T00:44:18;100188.81;;;14.84;49.81
67980;BME280;54760;47.490;19.030;2023-05-11T00:46:43;100170.09;;;15.00;49.56
67980;BME280;54760;47.490;19.030;2023-05-11T00:49:09;100168.28;;;15.19;48.50
67980;BME280;54760;47.490;19.030;2023-05-11T00:51:35;100172.19;;;15.09;49.56
67980;BME280;54760;47.490;19.030;2023-05-11T00:54:01;100169.37;;;15.00;50.40
67980;BME280;54760;47.490;19.030;2023-05-11T00:56:27;100176.66;;;14.94;50.77
67980;BME280;54760;47.490;19.030;2023-05-11T00:58:52;100167.88;;;15.08;50.44
67980;BME280;54760;47.490;19.030;2023-05-11T01:01:17;100166.13;;;14.80;51.31
67980;BME280;54760;47.490;19.030;2023-05-11T01:03:44;100177.13;;;14.80;51.74
67980;BME280;54760;47.490;19.030;2023-05-11T01:06:30;100166.63;;;14.87;51.90
67980;BME280;54760;47.490;19.030;2023-05-11T01:09:12;100168.50;;;14.90;51.97
67980;BME280;54760;47.490;19.030;2023-05-11T01:11:48;100165.50;;;14.97;52.15
67980;BME280;54760;47.490;19.030;2023-05-11T01:14:20;100168.94;;;14.89;52.37
67980;BME280;54760;47.490;19.030;2023-05-11T01:16:51;100169.19;;;14.82;52.41
67980;BME280;54760;47.490;19.030;2023-05-11T01:19:42;100163.03;;;14.78;52.60
67980;BME280;54760;47.490;19.030;2023-05-11T01:22:30;100174.53;;;14.63;53.23
67980;BME280;54760;47.490;19.030;2023-05-11T01:28:22;100165.22;;;14.83;52.33
67980;BME280;54760;47.490;19.030;2023-05-11T01:30:53;100172.00;;;14.91;52.03
67980;BME280;54760;47.490;19.030;2023-05-11T01:33:26;100171.50;;;14.83;52.29
67980;BME280;54760;47.490;19.030;2023-05-11T01:35:57;100173.91;;;14.81;52.43
67980;BME280;54760;47.490;19.030;2023-05-11T01:38:26;100175.50;;;14.69;52.57
67980;BME280;54760;47.490;19.030;2023-05-11T01:40:57;100171.44;;;14.61;52.64
67980;BME280;54760;47.490;19.030;2023-05-11T01:43:27;100175.41;;;14.60;52.74
67980;BME280;54760;47.490;19.030;2023-05-11T01:45:59;100171.34;;;14.65;52.72
67980;BME280;54760;47.490;19.030;2023-05-11T01:48:28;100174.38;;;14.80;52.34
67980;BME280;54760;47.490;19.030;2023-05-11T01:50:58;100168.78;;;14.70;52.65
67980;BME280;54760;47.490;19.030;2023-05-11T01:53:26;100169.56;;;14.58;52.98
67980;BME280;54760;47.490;19.030;2023-05-11T01:55:54;100169.69;;;14.42;53.37
67980;BME280;54760;47.490;19.030;2023-05-11T01:58:22;100176.06;;;14.14;54.35
67980;BME280;54760;47.490;19.030;2023-05-11T02:00:48;100171.66;;;14.29;53.78
67980;BME280;54760;47.490;19.030;2023-05-11T02:03:15;100168.81;;;14.07;54.52
67980;BME280;54760;47.490;19.030;2023-05-11T02:05:42;100164.31;;;14.39;53.75
67980;BME280;54760;47.490;19.030;2023-05-11T02:08:09;100170.25;;;13.99;54.71
67980;BME280;54760;47.490;19.030;2023-05-11T02:10:35;100168.16;;;13.91;55.18
67980;BME280;54760;47.490;19.030;2023-05-11T02:13:03;100166.50;;;14.18;54.41
67980;BME280;54760;47.490;19.030;2023-05-11T02:15:30;100165.06;;;14.14;54.23
67980;BME280;54760;47.490;19.030;2023-05-11T02:17:55;100171.91;;;13.97;54.87
67980;BME280;54760;47.490;19.030;2023-05-11T02:20:23;100157.34;;;14.09;54.73
67980;BME280;54760;47.490;19.030;2023-05-11T02:22:49;100158.34;;;14.15;54.42
67980;BME280;54760;47.490;19.030;2023-05-11T02:25:17;100156.50;;;14.12;54.46
67980;BME280;54760;47.490;19.030;2023-05-11T02:27:43;100161.12;;;14.40;53.73
67980;BME280;54760;47.490;19.030;2023-05-11T02:30:09;100161.91;;;14.41;53.70
67980;BME280;54760;47.490;19.030;2023-05-11T02:32:36;100152.31;;;14.45;53.55
67980;BME280;54760;47.490;19.030;2023-05-11T02:35:11;100154.72;;;14.18;54.40
67980;BME280;54760;47.490;19.030;2023-05-11T02:37:42;100147.00;;;14.25;54.26
67980;BME280;54760;47.490;19.030;2023-05-11T02:40:29;100154.50;;;14.00;55.04
67980;BME280;54760;47.490;19.030;2023-05-11T02:43:01;100158.34;;;13.77;55.79
67980;BME280;54760;47.490;19.030;2023-05-11T02:45:32;100147.88;;;13.84;55.92
67980;BME280;54760;47.490;19.030;2023-05-11T02:48:00;100154.16;;;13.98;55.28
67980;BME280;54760;47.490;19.030;2023-05-11T02:50:34;100152.94;;;13.73;56.00
67980;BME280;54760;47.490;19.030;2023-05-11T02:53:03;100149.97;;;13.80;56.03
67980;BME280;54760;47.490;19.030;2023-05-11T02:55:31;100147.34;;;14.15;55.12
67980;BME280;54760;47.490;19.030;2023-05-11T02:57:57;100152.28;;;13.95;55.57
67980;BME280;54760;47.490;19.030;2023-05-11T03:00:23;100143.28;;;14.07;55.30
67980;BME280;54760;47.490;19.030;2023-05-11T03:02:48;100142.81;;;13.70;56.50
67980;BME280;54760;47.490;19.030;2023-05-11T03:05:14;100151.63;;;13.91;56.14
67980;BME280;54760;47.490;19.030;2023-05-11T03:07:39;100147.53;;;13.70;56.83
67980;BME280;54760;47.490;19.030;2023-05-11T03:10:06;100140.41;;;13.72;56.59
67980;BME280;54760;47.490;19.030;2023-05-11T03:12:32;100146.88;;;13.78;56.43
67980;BME280;54760;47.490;19.030;2023-05-11T03:14:59;100142.25;;;13.75;56.45
67980;BME280;54760;47.490;19.030;2023-05-11T03:17:27;100145.03;;;13.75;56.35
67980;BME280;54760;47.490;19.030;2023-05-11T03:19:55;100145.34;;;13.90;56.08
67980;BME280;54760;47.490;19.030;2023-05-11T03:22:21;100149.41;;;13.60;57.10
67980;BME280;54760;47.490;19.030;2023-05-11T03:24:47;100147.00;;;13.62;57.20
67980;BME280;54760;47.490;19.030;2023-05-11T03:27:13;100153.75;;;13.45;57.55
67980;BME280;54760;47.490;19.030;2023-05-11T03:29:40;100158.87;;;13.72;56.66
67980;BME280;54760;47.490;19.030;2023-05-11T03:32:07;100152.50;;;13.62;56.90
67980;BME280;54760;47.490;19.030;2023-05-11T03:34:33;100154.78;;;13.51;57.17
67980;BME280;54760;47.490;19.030;2023-05-11T03:36:59;100155.47;;;13.68;56.59
67980;BME280;54760;47.490;19.030;2023-05-11T03:39:26;100162.06;;;13.70;56.31
67980;BME280;54760;47.490;19.030;2023-05-11T03:41:54;100159.06;;;13.52;56.58
67980;BME280;54760;47.490;19.030;2023-05-11T03:44:21;100158.66;;;13.66;56.29
67980;BME280;54760;47.490;19.030;2023-05-11T03:46:48;100158.34;;;13.35;57.30
67980;BME280;54760;47.490;19.030;2023-05-11T03:49:15;100160.16;;;13.13;57.93
67980;BME280;54760;47.490;19.030;2023-05-11T03:51:42;100162.63;;;13.08;57.99
67980;BME280;54760;47.490;19.030;2023-05-11T03:54:08;100166.72;;;13.44;57.22
67980;BME280;54760;47.490;19.030;2023-05-11T03:56:35;100161.44;;;13.37;57.25
67980;BME280;54760;47.490;19.030;2023-05-11T03:59:02;100160.44;;;13.31;57.45
67980;BME280;54760;47.490;19.030;2023-05-11T04:01:28;100162.09;;;13.29;57.19
67980;BME280;54760;47.490;19.030;2023-05-11T04:03:54;100164.56;;;13.52;56.90
67980;BME280;54760;47.490;19.030;2023-05-11T04:06:19;100167.28;;;13.39;57.04
67980;BME280;54760;47.490;19.030;2023-05-11T04:08:45;100168.72;;;13.44;57.17
67980;BME280;54760;47.490;19.030;2023-05-11T04:11:10;100160.38;;;13.48;56.89
67980;BME280;54760;47.490;19.030;2023-05-11T04:13:36;100169.81;;;13.34;56.98
67980;BME280;54760;47.490;19.030;2023-05-11T04:16:02;100166.53;;;13.52;56.71
67980;BME280;54760;47.490;19.030;2023-05-11T04:18:27;100169.84;;;13.59;56.34
67980;BME280;54760;47.490;19.030;2023-05-11T04:20:53;100174.56;;;13.59;56.48
67980;BME280;54760;47.490;19.030;2023-05-11T04:23:19;100170.25;;;13.45;57.11
67980;BME280;54760;47.490;19.030;2023-05-11T04:25:44;100173.09;;;13.29;57.23
67980;BME280;54760;47.490;19.030;2023-05-11T04:28:09;100185.28;;;13.69;55.81
67980;BME280;54760;47.490;19.030;2023-05-11T04:30:35;100187.06;;;13.88;55.32
67980;BME280;54760;47.490;19.030;2023-05-11T04:33:00;100190.69;;;13.73;55.08
67980;BME280;54760;47.490;19.030;2023-05-11T04:35:26;100184.84;;;13.71;54.85
67980;BME280;54760;47.490;19.030;2023-05-11T04:37:51;100174.84;;;13.89;54.17
67980;BME280;54760;47.490;19.030;2023-05-11T04:40:17;100189.72;;;14.05;53.76
67980;BME280;54760;47.490;19.030;2023-05-11T04:42:42;100191.38;;;14.15;53.11
67980;BME280;54760;47.490;19.030;2023-05-11T04:45:08;100191.28;;;14.18;53.30
67980;BME280;54760;47.490;19.030;2023-05-11T04:47:33;100198.00;;;14.30;52.81
67980;BME280;54760;47.490;19.030;2023-05-11T04:49:59;100191.19;;;14.22;53.10
67980;BME280;54760;47.490;19.030;2023-05-11T04:52:24;100189.84;;;14.26;53.01
67980;BME280;54760;47.490;19.030;2023-05-11T04:54:50;100188.31;;;14.38;52.76
67980;BME280;54760;47.490;19.030;2023-05-11T04:57:15;100191.72;;;14.55;52.49
67980;BME280;54760;47.490;19.030;2023-05-11T04:59:41;100199.13;;;14.45;52.89
67980;BME280;54760;47.490;19.030;2023-05-11T05:02:06;100193.37;;;14.52;52.95
67980;BME280;54760;47.490;19.030;2023-05-11T05:04:32;100194.38;;;14.58;52.45
67980;BME280;54760;47.490;19.030;2023-05-11T05:06:57;100198.97;;;14.74;51.64
67980;BME280;54760;47.490;19.030;2023-05-11T05:09:22;100194.78;;;14.69;50.84
67980;BME280;54760;47.490;19.030;2023-05-11T05:11:48;100192.69;;;14.73;50.39
67980;BME280;54760;47.490;19.030;2023-05-11T05:14:13;100196.22;;;14.74;50.09
67980;BME280;54760;47.490;19.030;2023-05-11T05:16:39;100190.16;;;14.66;48.57
67980;BME280;54760;47.490;19.030;2023-05-11T05:19:04;100198.31;;;14.57;49.40
67980;BME280;54760;47.490;19.030;2023-05-11T05:21:29;100201.94;;;14.67;49.87
67980;BME280;54760;47.490;19.030;2023-05-11T05:23:56;100203.94;;;14.66;49.80
67980;BME280;54760;47.490;19.030;2023-05-11T05:26:21;100206.13;;;14.71;49.15
67980;BME280;54760;47.490;19.030;2023-05-11T05:28:47;100207.19;;;14.87;47.86
67980;BME280;54760;47.490;19.030;2023-05-11T05:31:12;100212.41;;;14.85;47.59
67980;BME280;54760;47.490;19.030;2023-05-11T05:33:38;100205.00;;;14.82;47.23
67980;BME280;54760;47.490;19.030;2023-05-11T05:36:03;100203.22;;;14.88;47.69
67980;BME280;54760;47.490;19.030;2023-05-11T05:38:29;100203.09;;;15.04;46.84
67980;BME280;54760;47.490;19.030;2023-05-11T05:40:54;100197.69;;;15.00;46.68
67980;BME280;54760;47.490;19.030;2023-05-11T05:43:19;100204.13;;;15.19;46.38
67980;BME280;54760;47.490;19.030;2023-05-11T05:45:45;100205.12;;;15.47;45.42
67980;BME280;54760;47.490;19.030;2023-05-11T05:48:10;100206.09;;;16.36;44.05
67980;BME280;54760;47.490;19.030;2023-05-11T05:50:36;100202.25;;;16.92;42.63
67980;BME280;54760;47.490;19.030;2023-05-11T05:53:02;100202.25;;;17.47;41.09
67980;BME280;54760;47.490;19.030;2023-05-11T05:55:27;100207.19;;;18.21;40.00
67980;BME280;54760;47.490;19.030;2023-05-11T05:57:52;100204.25;;;17.64;40.22
67980;BME280;54760;47.490;19.030;2023-05-11T06:00:18;100208.38;;;18.71;38.35
67980;BME280;54760;47.490;19.030;2023-05-11T06:02:43;100218.84;;;19.15;37.72
67980;BME280;54760;47.490;19.030;2023-05-11T06:05:09;100216.56;;;19.66;37.22
67980;BME280;54760;47.490;19.030;2023-05-11T06:07:34;100197.75;;;20.69;34.52
67980;BME280;54760;47.490;19.030;2023-05-11T06:10:00;100208.88;;;20.69;34.84
67980;BME280;54760;47.490;19.030;2023-05-11T06:12:25;100193.50;;;21.60;32.92
67980;BME280;54760;47.490;19.030;2023-05-11T06:14:51;100207.34;;;22.01;32.21
67980;BME280;54760;47.490;19.030;2023-05-11T06:17:16;100207.53;;;21.20;33.37
67980;BME280;54760;47.490;19.030;2023-05-11T06:19:41;100211.19;;;22.09;32.12
67980;BME280;54760;47.490;19.030;2023-05-11T06:22:07;100209.13;;;20.51;34.81
67980;BME280;54760;47.490;19.030;2023-05-11T06:24:32;100210.88;;;21.24;33.92
67980;BME280;54760;47.490;19.030;2023-05-11T06:26:58;100209.78;;;19.97;35.93
67980;BME280;54760;47.490;19.030;2023-05-11T06:29:23;100212.66;;;18.96;37.94
67980;BME280;54760;47.490;19.030;2023-05-11T06:31:49;100211.41;;;18.73;39.05
67980;BME280;54760;47.490;19.030;2023-05-11T06:34:20;100216.78;;;18.44;39.37
67980;BME280;54760;47.490;19.030;2023-05-11T06:36:46;100214.31;;;18.46;39.77
67980;BME280;54760;47.490;19.030;2023-05-11T06:39:12;100215.06;;;18.55;39.74
67980;BME280;54760;47.490;19.030;2023-05-11T06:41:37;100213.41;;;18.40;40.45
67980;BME280;54760;47.490;19.030;2023-05-11T06:44:03;100216.06;;;17.92;41.70
67980;BME280;54760;47.490;19.030;2023-05-11T06:46:29;100215.06;;;18.13;41.06
67980;BME280;54760;47.490;19.030;2023-05-11T06:48:54;100206.87;;;18.19;41.47
67980;BME280;54760;47.490;19.030;2023-05-11T06:51:20;100210.81;;;18.36;41.04
67980;BME280;54760;47.490;19.030;2023-05-11T06:53:46;100204.84;;;18.29;41.82
67980;BME280;54760;47.490;19.030;2023-05-11T06:56:12;100205.34;;;18.51;40.50
67980;BME280;54760;47.490;19.030;2023-05-11T06:58:37;100207.47;;;18.65;40.69
67980;BME280;54760;47.490;19.030;2023-05-11T07:01:03;100199.91;;;18.66;39.74
67980;BME280;54760;47.490;19.030;2023-05-11T07:03:30;100197.09;;;18.75;40.03
67980;BME280;54760;47.490;19.030;2023-05-11T07:05:55;100187.16;;;18.83;40.06
67980;BME280;54760;47.490;19.030;2023-05-11T07:08:20;100190.63;;;18.92;40.02
67980;BME280;54760;47.490;19.030;2023-05-11T07:10:46;100189.16;;;18.82;39.68
67980;BME280;54760;47.490;19.030;2023-05-11T07:13:11;100196.72;;;18.82;40.28
67980;BME280;54760;47.490;19.030;2023-05-11T07:15:37;100191.78;;;18.86;39.56
67980;BME280;54760;47.490;19.030;2023-05-11T07:18:02;100194.72;;;19.21;39.10
67980;BME280;54760;47.490;19.030;2023-05-11T07:20:28;100186.19;;;18.71;39.26
67980;BME280;54760;47.490;19.030;2023-05-11T07:22:57;100196.31;;;18.41;40.00
67980;BME280;54760;47.490;19.030;2023-05-11T07:25:25;100185.47;;;18.52;40.31
67980;BME280;54760;47.490;19.030;2023-05-11T07:27:51;100184.09;;;18.48;40.35
67980;BME280;54760;47.490;19.030;2023-05-11T07:30:16;100191.38;;;18.45;40.24
67980;BME280;54760;47.490;19.030;2023-05-11T07:32:42;100189.16;;;18.26;40.24
67980;BME280;54760;47.490;19.030;2023-05-11T07:35:07;100187.78;;;18.21;40.23
67980;BME280;54760;47.490;19.030;2023-05-11T07:37:33;100185.69;;;18.40;39.98
67980;BME280;54760;47.490;19.030;2023-05-11T07:39:58;100186.59;;;18.46;39.70
67980;BME280;54760;47.490;19.030;2023-05-11T07:42:23;100179.44;;;18.63;38.82
67980;BME280;54760;47.490;19.030;2023-05-11T07:44:49;100180.75;;;18.44;38.17
67980;BME280;54760;47.490;19.030;2023-05-11T07:47:14;100177.97;;;18.44;38.24
67980;BME280;54760;47.490;19.030;2023-05-11T07:49:41;100189.09;;;18.68;37.86
67980;BME280;54760;47.490;19.030;2023-05-11T07:52:07;100180.72;;;18.77;37.27
67980;BME280;54760;47.490;19.030;2023-05-11T07:54:32;100180.03;;;18.67;37.55
67980;BME280;54760;47.490;19.030;2023-05-11T07:56:58;100181.88;;;18.70;37.79
67980;BME280;54760;47.490;19.030;2023-05-11T07:59:23;100186.91;;;18.72;37.64
67980;BME280;54760;47.490;19.030;2023-05-11T08:01:48;100180.63;;;18.95;37.53
67980;BME280;54760;47.490;19.030;2023-05-11T08:04:14;100177.50;;;19.17;37.56
67980;BME280;54760;47.490;19.030;2023-05-11T08:06:39;100187.28;;;19.27;37.02
67980;BME280;54760;47.490;19.030;2023-05-11T08:09:04;100188.03;;;19.13;36.78
67980;BME280;54760;47.490;19.030;2023-05-11T08:11:30;100181.47;;;19.25;37.07
67980;BME280;54760;47.490;19.030;2023-05-11T08:13:56;100180.88;;;19.59;37.38
67980;BME280;54760;47.490;19.030;2023-05-11T08:16:21;100167.03;;;19.79;36.78
67980;BME280;54760;47.490;19.030;2023-05-11T08:18:46;100161.12;;;19.57;36.76
67980;BME280;54760;47.490;19.030;2023-05-11T08:21:13;100160.75;;;19.94;36.72
67980;BME280;54760;47.490;19.030;2023-05-11T08:23:38;100170.31;;;19.93;36.89
67980;BME280;54760;47.490;19.030;2023-05-11T08:26:04;100159.19;;;19.93;36.88
67980;BME280;54760;47.490;19.030;2023-05-11T08:28:29;100160.50;;;20.12;36.35
67980;BME280;54760;47.490;19.030;2023-05-11T08:30:55;100158.78;;;20.00;35.98
67980;BME280;54760;47.490;19.030;2023-05-11T08:33:21;100155.34;;;20.05;36.84
67980;BME280;54760;47.490;19.030;2023-05-11T08:35:47;100160.53;;;19.97;35.73
67980;BME280;54760;47.490;19.030;2023-05-11T08:38:13;100154.56;;;20.04;36.01
67980;BME280;54760;47.490;19.030;2023-05-11T08:40:38;100143.91;;;20.17;35.31
67980;BME280;54760;47.490;19.030;2023-05-11T08:43:10;100152.34;;;20.58;35.58
67980;BME280;54760;47.490;19.030;2023-05-11T08:45:37;100145.72;;;20.55;34.01
67980;BME280;54760;47.490;19.030;2023-05-11T08:48:05;100151.38;;;20.61;33.96
67980;BME280;54760;47.490;19.030;2023-05-11T08:50:31;100149.47;;;20.72;33.66
67980;BME280;54760;47.490;19.030;2023-05-11T08:52:56;100136.94;;;21.03;33.54
67980;BME280;54760;47.490;19.030;2023-05-11T08:55:24;100147.25;;;21.17;33.71
67980;BME280;54760;47.490;19.030;2023-05-11T08:57:50;100132.69;;;21.07;33.46
67980;BME280;54760;47.490;19.030;2023-05-11T09:00:17;100133.13;;;21.00;33.40
67980;BME280;54760;47.490;19.030;2023-05-11T09:02:44;100130.78;;;21.13;33.91
67980;BME280;54760;47.490;19.030;2023-05-11T09:05:09;100130.69;;;21.28;33.87
67980;BME280;54760;47.490;19.030;2023-05-11T09:07:35;100125.59;;;21.52;33.37
67980;BME280;54760;47.490;19.030;2023-05-11T09:10:03;100124.75;;;21.72;34.45
67980;BME280;54760;47.490;19.030;2023-05-11T09:12:28;100127.94;;;21.59;35.27
67980;BME280;54760;47.490;19.030;2023-05-11T09:14:54;100123.97;;;21.40;34.79
67980;BME280;54760;47.490;19.030;2023-05-11T09:17:20;100124.63;;;21.30;34.86
67980;BME280;54760;47.490;19.030;2023-05-11T09:20:01;100119.97;;;21.21;35.06
67980;BME280;54760;47.490;19.030;2023-05-11T09:22:34;100125.66;;;21.32;35.06
67980;BME280;54760;47.490;19.030;2023-05-11T09:25:04;100122.22;;;21.43;34.92
67980;BME280;54760;47.490;19.030;2023-05-11T09:27:30;100116.47;;;21.52;34.58
67980;BME280;54760;47.490;19.030;2023-05-11T09:29:56;100117.78;;;21.31;33.80
67980;BME280;54760;47.490;19.030;2023-05-11T09:32:49;100104.72;;;21.42;36.13
67980;BME280;54760;47.490;19.030;2023-05-11T09:35:19;100110.06;;;21.46;35.24
67980;BME280;54760;47.490;19.030;2023-05-11T09:40:49;100111.72;;;21.32;33.08
67980;BME280;54760;47.490;19.030;2023-05-11T09:43:17;100110.47;;;21.33;34.17
67980;BME280;54760;47.490;19.030;2023-05-11T09:45:47;100100.94;;;21.45;32.63
67980;BME280;54760;47.490;19.030;2023-05-11T09:48:23;100101.28;;;21.53;32.35
67980;BME280;54760;47.490;19.030;2023-05-11T09:50:51;100113.19;;;21.53;32.81
67980;BME280;54760;47.490;19.030;2023-05-11T09:53:17;100101.69;;;21.72;31.78
67980;BME280;54760;47.490;19.030;2023-05-11T09:55:50;100098.47;;;21.79;31.74
67980;BME280;54760;47.490;19.030;2023-05-11T09:58:16;100103.59;;;22.23;31.84
67980;BME280;54760;47.490;19.030;2023-05-11T10:00:51;100101.22;;;22.64;31.13
67980;BME280;54760;47.490;19.030;2023-05-11T10:03:18;100098.59;;;22.43;30.98
67980;BME280;54760;47.490;19.030;2023-05-11T10:06:00;100094.34;;;22.54;31.39
67980;BME280;54760;47.490;19.030;2023-05-11T10:08:30;100084.84;;;22.23;29.94
67980;BME280;54760;47.490;19.030;2023-05-11T10:11:00;100089.81;;;22.56;29.32
67980;BME280;54760;47.490;19.030;2023-05-11T10:13:26;100090.97;;;22.38;28.82
67980;BME280;54760;47.490;19.030;2023-05-11T10:15:53;100088.19;;;22.33;28.05
67980;BME280;54760;47.490;19.030;2023-05-11T10:18:19;100081.25;;;22.17;29.11
67980;BME280;54760;47.490;19.030;2023-05-11T10:20:45;100085.00;;;22.57;29.51
67980;BME280;54760;47.490;19.030;2023-05-11T10:23:11;100081.56;;;22.30;29.13
67980;BME280;54760;47.490;19.030;2023-05-11T10:25:38;100077.22;;;22.77;29.47
67980;BME280;54760;47.490;19.030;2023-05-11T10:28:04;100074.66;;;22.74;28.73
67980;BME280;54760;47.490;19.030;2023-05-11T10:30:32;100077.22;;;22.83;28.99
67980;BME280;54760;47.490;19.030;2023-05-11T10:32:59;100080.19;;;22.68;28.32
67980;BME280;54760;47.490;19.030;2023-05-11T10:35:26;100076.25;;;22.97;28.08
67980;BME280;54760;47.490;19.030;2023-05-11T10:37:51;100073.50;;;23.19;28.45
67980;BME280;54760;47.490;19.030;2023-05-11T10:40:17;100060.56;;;23.22;28.67
67980;BME280;54760;47.490;19.030;2023-05-11T10:48:42;100062.75;;;22.79;27.89
67980;BME280;54760;47.490;19.030;2023-05-11T11:02:57;100064.59;;;22.34;28.36
67980;BME280;54760;47.490;19.030;2023-05-11T11:05:34;100047.19;;;22.50;28.87
67980;BME280;54760;47.490;19.030;2023-05-11T11:08:01;100033.78;;;22.60;28.27
67980;BME280;54760;47.490;19.030;2023-05-11T11:10:30;100049.19;;;22.50;28.31
67980;BME280;54760;47.490;19.030;2023-05-11T11:13:06;100051.94;;;22.38;28.65
67980;BME280;54760;47.490;19.030;2023-05-11T11:18:30;100043.78;;;22.29;28.50
67980;BME280;54760;47.490;19.030;2023-05-11T11:20:58;100045.00;;;22.17;27.59
67980;BME280;54760;47.490;19.030;2023-05-11T11:26:05;100050.56;;;22.12;28.02
67980;BME280;54760;47.490;19.030;2023-05-11T11:31:32;100043.09;;;21.60;28.06
67980;BME280;54760;47.490;19.030;2023-05-11T11:44:37;100022.50;;;21.84;28.43
67980;BME280;54760;47.490;19.030;2023-05-11T11:49:42;100028.22;;;22.06;28.01
67980;BME280;54760;47.490;19.030;2023-05-11T11:52:31;100024.19;;;22.07;28.64
67980;BME280;54760;47.490;19.030;2023-05-11T11:54:58;100017.00;;;22.48;28.49
67980;BME280;54760;47.490;19.030;2023-05-11T11:59:58;100025.69;;;22.67;29.28
67980;BME280;54760;47.490;19.030;2023-05-11T12:02:25;100026.59;;;22.36;27.77
67980;BME280;54760;47.490;19.030;2023-05-11T12:05:00;100036.13;;;22.13;28.15
67980;BME280;54760;47.490;19.030;2023-05-11T12:07:31;100020.88;;;22.03;27.57
67980;BME280;54760;47.490;19.030;2023-05-11T12:09:58;100025.56;;;22.39;27.39
67980;BME280;54760;47.490;19.030;2023-05-11T12:12:26;100007.91;;;22.65;27.46
67980;BME280;54760;47.490;19.030;2023-05-11T12:14:52;100007.75;;;22.91;27.53
67980;BME280;54760;47.490;19.030;2023-05-11T12:17:27;100001.88;;;22.77;28.18
67980;BME280;54760;47.490;19.030;2023-05-11T12:20:16;100011.84;;;22.30;28.88
67980;BME280;54760;47.490;19.030;2023-05-11T12:22:42;100013.28;;;22.09;28.48
67980;BME280;54760;47.490;19.030;2023-05-11T12:25:13;99999.53;;;22.59;28.17
67980;BME280;54760;47.490;19.030;2023-05-11T12:27:50;99990.16;;;22.68;27.11
67980;BME280;54760;47.490;19.030;2023-05-11T12:32:45;99995.50;;;22.66;27.09
67980;BME280;54760;47.490;19.030;2023-05-11T12:35:10;99994.72;;;22.65;27.53
67980;BME280;54760;47.490;19.030;2023-05-11T12:37:40;99992.00;;;22.76;27.68
67980;BME280;54760;47.490;19.030;2023-05-11T12:40:09;99996.31;;;22.94;27.88
67980;BME280;54760;47.490;19.030;2023-05-11T12:42:35;99977.28;;;22.93;27.21
67980;BME280;54760;47.490;19.030;2023-05-11T12:45:02;99984.38;;;22.82;27.46
67980;BME280;54760;47.490;19.030;2023-05-11T12:47:28;99985.91;;;22.89;27.20
67980;BME280;54760;47.490;19.030;2023-05-11T12:49:54;99974.16;;;22.63;27.88
67980;BME280;54760;47.490;19.030;2023-05-11T12:52:22;99982.09;;;22.81;27.88
67980;BME280;54760;47.490;19.030;2023-05-11T12:54:49;99981.78;;;22.62;27.24
67980;BME280;54760;47.490;19.030;2023-05-11T12:57:28;99969.41;;;22.80;27.76
67980;BME280;54760;47.490;19.030;2023-05-11T13:02:32;99967.12;;;22.73;26.58
67980;BME280;54760;47.490;19.030;2023-05-11T13:04:58;99961.56;;;23.06;27.19
67980;BME280;54760;47.490;19.030;2023-05-11T13:07:25;99949.38;;;23.20;26.53
67980;BME280;54760;47.490;19.030;2023-05-11T13:09:58;99947.59;;;23.17;26.87
67980;BME280;54760;47.490;19.030;2023-05-11T13:12:24;99946.09;;;23.16;26.39
67980;BME280;54760;47.490;19.030;2023-05-11T13:15:06;99952.16;;;23.31;26.45
67980;BME280;54760;47.490;19.030;2023-05-11T13:17:36;99935.94;;;23.24;27.03
67980;BME280;54760;47.490;19.030;2023-05-11T13:20:22;99937.69;;;23.27;27.07
67980;BME280;54760;47.490;19.030;2023-05-11T13:22:50;99938.19;;;23.54;27.61
67980;BME280;54760;47.490;19.030;2023-05-11T13:25:18;99943.75;;;23.65;27.26
67980;BME280;54760;47.490;19.030;2023-05-11T13:27:44;99936.16;;;23.26;27.59
67980;BME280;54760;47.490;19.030;2023-05-11T13:30:10;99925.00;;;23.49;26.65
67980;BME280;54760;47.490;19.030;2023-05-11T13:32:36;99928.19;;;23.81;26.12
67980;BME280;54760;47.490;19.030;2023-05-11T13:35:03;99931.53;;;23.79;26.77